METAR AND TAF INFORMATION
METAR FOR LTAI
ADDS - METARS form results

(0413 UTC 26 August 2019)
Data provider http://aviationweather.gov/metar/data/
 
METAR text: LTAI 260350Z 31006KT CAVOK 27/16 Q1008 NOSIG RMK RWY18C 31004KT RWY36R 30005KT 260V340 RWY18L 31006KT
Conditions at: LTAI (ANTALYA (CIV/MIL, TR) observed 0350 UTC 26 August 2019
Temperature: 27.0°C (81°F)
Dewpoint: 16.0°C (61°F) [RH = 51%]
Pressure (altimeter): 29.76 inches Hg (1008.0 mb)
Winds: from the NW (310 degrees) at 7 MPH (6 knots; 3.1 m/s)
Visibility: 6 or more miles (10+ km)
Ceiling: ceiling and visibility are OK
Clouds: unknown
Weather: no significant weather observed at this time

METAR text: LTAI 260320Z 32005KT 280V360 CAVOK 27/16 Q1008 NOSIG RMK RWY18C 35006KT RWY36R 32006KT 290V350 RWY18L 32008G18KT
Conditions at: LTAI (ANTALYA (CIV/MIL, TR) observed 0320 UTC 26 August 2019
Temperature: 27.0°C (81°F)
Dewpoint: 16.0°C (61°F) [RH = 51%]
Pressure (altimeter): 29.76 inches Hg (1008.0 mb)
Winds: from the NW (320 degrees) at 6 MPH (5 knots; 2.6 m/s)
Visibility: 6 or more miles (10+ km)
Ceiling: ceiling and visibility are OK
Clouds: unknown
Weather: no significant weather observed at this time

Forecast for: LTAI (ANTALYA (CIV/MIL, TR)
Text: TAF LTAI 252240Z 2600/2624 34008KT CAVOK
Forecast period: 0000 to 0600 UTC 26 August 2019
Forecast type: FROM: standard forecast or significant change
Winds: from the NNW (340 degrees) at 9 MPH (8 knots; 4.1 m/s)
Visibility: 6 or more miles 10+ km)
Ceiling: unknown
Clouds: missing
Weather: NSW  (no significant weather)
Text: BECMG 2606/2609 16012KT FEW030
Forecast period: 0600 to 1600 UTC 26 August 2019
Forecast type: BECOMING: Conditions expected to become as follows by 0900 UTC 26 August 2019
Winds: from the SSE (160 degrees) at 14 MPH (12 knots; 6.2 m/s)
Visibility: 6 or more miles 10+ km)
Ceiling: at least 12,000 feet AGL
Clouds: few clouds at 3000 feet AGL
Weather: NSW  (no significant weather)
Text: BECMG 2616/2620 VRB02KT CAVOK
Forecast period: 1600 UTC 26 August 2019 to 0000 UTC 27 August 2019
Forecast type: BECOMING: Conditions expected to become as follows by 2000 UTC 26 August 2019
Winds: variable direction winds at 2 MPH (2 knots; 1.0 m/s)
Visibility: 6 or more miles 10+ km)
Ceiling: unknown
Clouds: missing
Weather: NSW  (no significant weather)

 AIRPORT MAP

 RUNWAY INFORMATION

 AIRPORT FREQUENCIES
Type APP Name upper Frequency 122.05 MHZ
Type Approach Name arrival Frequency 119.65 MHZ
Type ATIS Name ATIS Frequency 118.275 MHZ
Type CLD Name CLNC DEL Frequency 123.175 MHZ
Type GND Name GND Frequency 121.9 MHZ
Type TWR Name TWR east Frequency 125 MHZ
Type TWR Name TWR west Frequency 126.1 MHZ

 AIRPORT NEAR NAVIGATION AIDS
Type DME Name Antalya Frequency 109100 KHZ
Type TACAN Name Antalya Frequency 115500 KHZ
Type VOR-DME Name Antalya Frequency 114000 KHZ
Type NDB Name Antalya Frequency 413 KHZ
Type VOR-DME Name Lara Frequency 113600 KHZ
Type NDB Name Antalya Frequency 302 KHZ



2018 Air Astana Virtual Airline